createdAt,value
2023-03-04T00:01:33.584Z,100928.75
2023-03-04T00:04:01.517Z,100916.41
2023-03-04T00:06:34.589Z,100929.31
2023-03-04T00:09:04.335Z,100925.88
2023-03-04T00:11:34.322Z,100921.56
2023-03-04T00:14:14.196Z,100907.53
2023-03-04T00:16:45.522Z,100907.22
2023-03-04T00:19:17.653Z,100920.00
2023-03-04T00:21:45.846Z,100904.16
2023-03-04T00:24:35.561Z,100910.38
2023-03-04T00:27:09.114Z,100892.22
2023-03-04T00:29:38.582Z,100906.38
2023-03-04T00:32:39.082Z,100908.53
2023-03-04T00:35:08.095Z,100916.56
2023-03-04T00:37:44.884Z,100913.81
2023-03-04T00:40:12.014Z,100919.13
2023-03-04T00:42:38.319Z,100913.56
2023-03-04T00:45:05.509Z,100910.97
2023-03-04T00:47:31.981Z,100908.03
2023-03-04T00:49:58.538Z,100899.81
2023-03-04T00:52:25.180Z,100880.59
2023-03-04T00:54:51.649Z,100883.00
2023-03-04T00:57:18.039Z,100888.69
2023-03-04T00:59:45.613Z,100892.88
2023-03-04T01:02:12.088Z,100898.25
2023-03-04T01:04:38.721Z,100884.94
2023-03-04T01:07:04.917Z,100877.97
2023-03-04T01:09:31.498Z,100875.72
2023-03-04T01:11:57.608Z,100868.84
2023-03-04T01:14:24.109Z,100860.91
2023-03-04T01:16:50.356Z,100844.63
2023-03-04T01:19:17.966Z,100851.09
2023-03-04T01:21:44.228Z,100840.13
2023-03-04T01:24:10.694Z,100840.34
2023-03-04T01:26:40.159Z,100835.84
2023-03-04T01:29:06.909Z,100829.09
2023-03-04T01:31:33.121Z,100819.34
2023-03-04T01:33:59.784Z,100818.81
2023-03-04T01:36:26.023Z,100816.56
2023-03-04T01:38:52.449Z,100813.56
2023-03-04T01:41:23.572Z,100815.09
2023-03-04T01:43:50.379Z,100809.72
2023-03-04T01:46:17.051Z,100798.59
2023-03-04T01:48:44.170Z,100805.88
2023-03-04T01:51:15.051Z,100797.75
2023-03-04T01:53:43.699Z,100789.81
2023-03-04T01:56:24.913Z,100778.44
2023-03-04T01:59:11.647Z,100780.56
2023-03-04T02:01:39.552Z,100768.25
2023-03-04T02:04:07.354Z,100766.53
2023-03-04T02:06:35.698Z,100766.78
2023-03-04T02:09:03.074Z,100755.72
2023-03-04T02:11:29.393Z,100746.72
2023-03-04T02:13:56.147Z,100743.19
2023-03-04T02:16:22.330Z,100747.91
2023-03-04T02:18:48.976Z,100741.56
2023-03-04T02:21:24.384Z,100744.03
2023-03-04T02:24:19.096Z,100742.75
2023-03-04T02:26:46.279Z,100740.72
2023-03-04T02:29:15.003Z,100739.75
2023-03-04T02:31:44.368Z,100734.72
2023-03-04T02:34:18.482Z,100732.69
2023-03-04T02:36:46.201Z,100725.84
2023-03-04T02:39:20.768Z,100723.50
2023-03-04T02:41:50.544Z,100716.72
2023-03-04T02:44:20.256Z,100720.59
2023-03-04T02:46:48.188Z,100707.41
2023-03-04T02:49:15.128Z,100704.22
2023-03-04T02:51:41.582Z,100706.13
2023-03-04T02:54:19.266Z,100704.84
2023-03-04T02:56:50.188Z,100714.16
2023-03-04T02:59:18.049Z,100710.53
2023-03-04T03:01:45.045Z,100705.72
2023-03-04T03:04:12.368Z,100704.31
2023-03-04T03:06:38.978Z,100706.47
2023-03-04T03:09:06.180Z,100701.09
2023-03-04T03:11:32.756Z,100700.03
2023-03-04T03:13:59.285Z,100692.22
2023-03-04T03:16:25.810Z,100696.28
2023-03-04T03:18:52.336Z,100691.91
2023-03-04T03:21:19.818Z,100688.47
2023-03-04T03:23:46.483Z,100696.50
2023-03-04T03:26:12.890Z,100693.31
2023-03-04T03:28:39.315Z,100682.69
2023-03-04T03:31:05.723Z,100696.09
2023-03-04T03:33:32.258Z,100692.13
2023-03-04T03:35:59.499Z,100691.38
2023-03-04T03:38:26.682Z,100699.72
2023-03-04T03:40:52.867Z,100705.41
2023-03-04T03:43:21.069Z,100707.66
2023-03-04T03:45:47.279Z,100700.28
2023-03-04T03:48:13.735Z,100694.91
2023-03-04T03:50:39.853Z,100691.91
2023-03-04T03:53:06.400Z,100694.38
2023-03-04T03:55:32.613Z,100695.22
2023-03-04T03:57:59.016Z,100689.88
2023-03-04T04:00:25.162Z,100685.16
2023-03-04T04:02:54.934Z,100683.56
2023-03-04T04:05:21.200Z,100680.44
2023-03-04T04:07:47.566Z,100685.06
2023-03-04T04:10:13.703Z,100677.75
2023-03-04T04:12:40.188Z,100680.22
2023-03-04T04:15:07.050Z,100679.81
2023-03-04T04:17:33.494Z,100689.56
2023-03-04T04:19:59.617Z,100692.56
2023-03-04T04:22:26.056Z,100689.22
2023-03-04T04:24:52.149Z,100691.47
2023-03-04T04:27:18.484Z,100701.13
2023-03-04T04:29:44.711Z,100698.34
2023-03-04T04:32:12.505Z,100692.00
2023-03-04T04:34:38.691Z,100683.75
2023-03-04T04:37:05.092Z,100684.06
2023-03-04T04:39:31.270Z,100673.78
2023-03-04T04:41:57.649Z,100679.16
2023-03-04T04:44:23.826Z,100684.63
2023-03-04T04:46:50.189Z,100680.66
2023-03-04T04:49:16.396Z,100682.47
2023-03-04T04:51:42.815Z,100682.25
2023-03-04T04:54:09.934Z,100678.50
2023-03-04T04:56:36.468Z,100676.56
2023-03-04T04:59:04.868Z,100679.03
2023-03-04T05:01:31.855Z,100671.94
2023-03-04T05:03:58.124Z,100662.00
2023-03-04T05:06:25.247Z,100668.31
2023-03-04T05:08:51.924Z,100665.44
2023-03-04T05:11:19.400Z,100664.47
2023-03-04T05:13:46.802Z,100658.91
2023-03-04T05:16:14.343Z,100666.72
2023-03-04T05:18:40.654Z,100659.34
2023-03-04T05:21:07.506Z,100661.56
2023-03-04T05:23:38.212Z,100650.66
2023-03-04T05:26:05.935Z,100660.06
2023-03-04T05:28:32.743Z,100661.66
2023-03-04T05:30:59.617Z,100648.50
2023-03-04T05:33:25.925Z,100652.03
2023-03-04T05:35:54.257Z,100641.94
2023-03-04T05:38:21.360Z,100641.94
2023-03-04T05:40:48.426Z,100632.94
2023-03-04T05:43:15.111Z,100629.28
2023-03-04T05:45:41.879Z,100625.66
2023-03-04T05:48:08.342Z,100631.63
2023-03-04T05:50:35.464Z,100630.91
2023-03-04T05:53:01.806Z,100634.53
2023-03-04T05:55:29.353Z,100637.44
2023-03-04T05:57:56.310Z,100631.34
2023-03-04T06:00:23.004Z,100633.97
2023-03-04T06:02:49.371Z,100634.63
2023-03-04T06:05:16.851Z,100632.28
2023-03-04T06:07:43.840Z,100634.44
2023-03-04T06:10:13.734Z,100639.13
2023-03-04T06:12:40.740Z,100638.00
2023-03-04T06:15:09.541Z,100638.50
2023-03-04T06:17:37.263Z,100635.81
2023-03-04T06:20:06.157Z,100629.06
2023-03-04T06:22:33.901Z,100633.56
2023-03-04T06:25:00.755Z,100632.94
2023-03-04T06:27:27.202Z,100635.41
2023-03-04T06:29:54.289Z,100626.09
2023-03-04T06:32:20.485Z,100633.16
2023-03-04T06:34:46.958Z,100640.66
2023-03-04T06:37:13.212Z,100630.25
2023-03-04T06:39:39.618Z,100627.81
2023-03-04T06:42:05.887Z,100637.66
2023-03-04T06:44:32.463Z,100631.44
2023-03-04T06:46:58.829Z,100650.72
2023-03-04T06:49:25.674Z,100640.22
2023-03-04T06:51:52.444Z,100639.78
2023-03-04T06:54:19.470Z,100638.16
2023-03-04T06:56:45.785Z,100632.84
2023-03-04T06:59:12.638Z,100629.41
2023-03-04T07:01:38.902Z,100627.59
2023-03-04T07:04:05.795Z,100627.03
2023-03-04T07:06:32.360Z,100622.34
2023-03-04T07:08:59.310Z,100624.28
2023-03-04T07:11:26.525Z,100622.00
2023-03-04T07:13:53.345Z,100624.06
2023-03-04T07:16:21.596Z,100624.47
2023-03-04T07:18:48.485Z,100619.28
2023-03-04T07:21:16.134Z,100616.19
2023-03-04T07:23:42.957Z,100611.75
2023-03-04T07:26:09.408Z,100625.38
2023-03-04T07:28:36.630Z,100615.00
2023-03-04T07:31:16.022Z,100618.06
2023-03-04T07:33:42.674Z,100616.59
2023-03-04T07:36:10.213Z,100617.09
2023-03-04T07:38:36.865Z,100624.19
2023-03-04T07:41:03.310Z,100613.47
2023-03-04T07:43:29.841Z,100613.00
2023-03-04T07:45:59.847Z,100616.59
2023-03-04T07:48:26.949Z,100620.88
2023-03-04T07:51:07.025Z,100624.66
2023-03-04T07:53:34.722Z,100612.81
2023-03-04T07:56:02.707Z,100613.56
2023-03-04T07:58:29.492Z,100616.53
2023-03-04T08:00:55.912Z,100627.03
2023-03-04T08:03:22.457Z,100618.06
2023-03-04T08:05:48.574Z,100620.72
2023-03-04T08:08:17.294Z,100618.28
2023-03-04T08:10:45.842Z,100610.63
2023-03-04T08:13:13.284Z,100611.97
2023-03-04T08:15:41.454Z,100612.72
2023-03-04T08:18:08.493Z,100613.09
2023-03-04T08:20:35.011Z,100613.09
2023-03-04T08:23:01.909Z,100614.22
2023-03-04T08:25:28.121Z,100607.88
2023-03-04T08:27:54.590Z,100600.66
2023-03-04T08:30:20.952Z,100611.03
2023-03-04T08:32:47.824Z,100597.25
2023-03-04T08:35:14.375Z,100599.69
2023-03-04T08:37:40.824Z,100601.28
2023-03-04T08:40:07.954Z,100600.19
2023-03-04T08:42:34.529Z,100597.38
2023-03-04T08:45:00.928Z,100601.06
2023-03-04T08:47:27.475Z,100601.69
2023-03-04T08:49:53.993Z,100594.00
2023-03-04T08:52:20.871Z,100591.19
2023-03-04T08:54:47.442Z,100598.38
2023-03-04T08:57:14.124Z,100596.66
2023-03-04T08:59:40.697Z,100591.41
2023-03-04T09:02:07.335Z,100592.28
2023-03-04T09:04:33.860Z,100594.47
2023-03-04T09:07:00.453Z,100598.38
2023-03-04T09:09:27.054Z,100584.94
2023-03-04T09:11:53.854Z,100581.03
2023-03-04T09:14:20.449Z,100584.00
2023-03-04T09:16:47.190Z,100589.34
2023-03-04T09:19:13.517Z,100586.66
2023-03-04T09:21:40.260Z,100583.47
2023-03-04T09:24:06.815Z,100584.94
2023-03-04T09:26:33.579Z,100586.59
2023-03-04T09:29:02.034Z,100596.59
2023-03-04T09:31:28.975Z,100585.34
2023-03-04T09:33:56.704Z,100582.75
2023-03-04T09:36:24.364Z,100582.94
2023-03-04T09:38:50.867Z,100568.31
2023-03-04T09:41:52.506Z,100572.19
2023-03-04T09:44:22.217Z,100577.38
2023-03-04T09:46:50.263Z,100567.94
2023-03-04T09:49:20.592Z,100570.25
2023-03-04T09:51:53.611Z,100573.13
2023-03-04T09:54:44.721Z,100557.78
2023-03-04T09:57:28.011Z,100561.00
2023-03-04T10:00:07.109Z,100568.97
2023-03-04T10:03:05.054Z,100563.41
2023-03-04T10:05:36.145Z,100550.88
2023-03-04T10:08:18.829Z,100556.22
2023-03-04T10:10:46.184Z,100554.38
2023-03-04T10:13:19.050Z,100563.41
2023-03-04T10:15:50.318Z,100552.63
2023-03-04T10:18:49.265Z,100557.06
2023-03-04T10:21:29.208Z,100559.44
2023-03-04T10:23:58.152Z,100550.06
2023-03-04T10:26:32.344Z,100554.03
2023-03-04T10:29:02.241Z,100560.59
2023-03-04T10:31:35.879Z,100556.72
2023-03-04T10:34:06.410Z,100556.78
2023-03-04T10:36:44.705Z,100556.13
2023-03-04T10:39:17.206Z,100551.00
2023-03-04T10:41:52.710Z,100558.00
2023-03-04T10:44:19.275Z,100544.75
2023-03-04T10:46:47.953Z,100546.28
2023-03-04T10:49:17.267Z,100543.63
2023-03-04T10:51:49.584Z,100547.66
2023-03-04T10:54:26.614Z,100543.16
2023-03-04T10:56:56.658Z,100543.69
2023-03-04T10:59:40.207Z,100549.81
2023-03-04T11:02:13.799Z,100547.34
2023-03-04T11:04:40.483Z,100546.25
2023-03-04T11:07:10.722Z,100542.72
2023-03-04T11:09:39.432Z,100534.91
2023-03-04T11:12:15.015Z,100529.78
2023-03-04T11:14:48.388Z,100530.28
2023-03-04T11:17:19.399Z,100535.69
2023-03-04T11:20:15.529Z,100536.97
2023-03-04T11:22:44.987Z,100533.13
2023-03-04T11:25:26.930Z,100533.25
2023-03-04T11:27:57.678Z,100537.25
2023-03-04T11:30:30.847Z,100527.69
2023-03-04T11:33:11.500Z,100521.53
2023-03-04T11:35:45.121Z,100521.22
2023-03-04T11:38:19.056Z,100523.78
2023-03-04T11:40:52.480Z,100519.25
2023-03-04T11:43:25.906Z,100523.88
2023-03-04T11:46:21.155Z,100516.38
2023-03-04T11:49:09.262Z,100517.34
2023-03-04T11:51:54.230Z,100516.06
2023-03-04T11:54:30.730Z,100524.97
2023-03-04T11:57:11.850Z,100528.22
2023-03-04T11:59:59.381Z,100525.97
2023-03-04T12:02:47.001Z,100521.88
2023-03-04T12:05:29.858Z,100505.44
2023-03-04T12:08:08.354Z,100508.97
2023-03-04T12:10:52.106Z,100506.56
2023-03-04T12:13:21.507Z,100515.09
2023-03-04T12:16:06.008Z,100510.84
2023-03-04T12:18:57.326Z,100502.88
2023-03-04T12:22:11.104Z,100509.38
2023-03-04T12:24:56.351Z,100489.03
2023-03-04T12:27:44.446Z,100506.94
2023-03-04T12:30:35.271Z,100503.09
2023-03-04T12:33:22.158Z,100489.03
2023-03-04T12:36:05.745Z,100500.59
2023-03-04T12:38:32.427Z,100504.75
2023-03-04T12:41:29.290Z,100495.84
2023-03-04T12:43:58.796Z,100491.69
2023-03-04T12:47:16.857Z,100493.50
2023-03-04T12:50:13.507Z,100484.38
2023-03-04T12:52:55.038Z,100494.69
2023-03-04T12:55:31.461Z,100494.72
2023-03-04T12:57:58.671Z,100501.97
2023-03-04T13:00:51.122Z,100497.59
2023-03-04T13:03:42.349Z,100501.59
2023-03-04T13:06:30.808Z,100498.75
2023-03-04T13:09:17.973Z,100510.69
2023-03-04T13:11:52.390Z,100507.13
2023-03-04T13:14:25.467Z,100512.25
2023-03-04T13:16:54.881Z,100505.25
2023-03-04T13:19:44.402Z,100516.16
2023-03-04T13:22:29.625Z,100505.91
2023-03-04T13:24:58.237Z,100505.63
2023-03-04T13:27:51.107Z,100515.97
2023-03-04T13:30:37.384Z,100508.13
2023-03-04T13:33:15.762Z,100521.00
2023-03-04T13:35:48.468Z,100522.31
2023-03-04T13:38:27.139Z,100510.59
2023-03-04T13:41:20.422Z,100522.47
2023-03-04T13:44:06.117Z,100531.25
2023-03-04T13:46:41.965Z,100526.91
2023-03-04T13:49:20.560Z,100524.72
2023-03-04T13:51:47.364Z,100516.97
2023-03-04T13:54:23.283Z,100522.63
2023-03-04T13:57:19.597Z,100518.69
2023-03-04T13:59:58.815Z,100524.91
2023-03-04T14:02:26.540Z,100530.84
2023-03-04T14:04:52.749Z,100539.78
2023-03-04T14:07:26.614Z,100553.22
2023-03-04T14:10:11.662Z,100561.38
2023-03-04T14:12:43.752Z,100560.25
2023-03-04T14:15:12.888Z,100559.78
2023-03-04T14:17:45.227Z,100559.44
2023-03-04T14:20:24.972Z,100559.53
2023-03-04T14:22:51.892Z,100559.53
2023-03-04T14:25:29.726Z,100556.97
2023-03-04T14:28:12.310Z,100548.56
2023-03-04T14:30:44.021Z,100556.97
2023-03-04T14:33:18.148Z,100555.84
2023-03-04T14:35:47.462Z,100554.72
2023-03-04T14:38:37.432Z,100564.63
2023-03-04T14:41:06.407Z,100561.47
2023-03-04T14:43:44.119Z,100564.75
2023-03-04T14:46:14.930Z,100557.97
2023-03-04T14:48:48.596Z,100560.03
2023-03-04T14:51:38.577Z,100569.19
2023-03-04T14:54:05.865Z,100557.81
2023-03-04T14:56:35.617Z,100567.13
2023-03-04T14:59:02.868Z,100573.22
2023-03-04T15:01:33.066Z,100566.78
2023-03-04T15:04:03.319Z,100568.94
2023-03-04T15:06:32.564Z,100568.06
2023-03-04T15:09:07.034Z,100578.31
2023-03-04T15:11:50.730Z,100568.81
2023-03-04T15:14:44.940Z,100576.88
2023-03-04T15:17:37.811Z,100572.84
2023-03-04T15:20:07.316Z,100564.31
2023-03-04T15:22:35.728Z,100572.25
2023-03-04T15:25:03.101Z,100578.13
2023-03-04T15:27:30.490Z,100573.94
2023-03-04T15:30:00.008Z,100571.66
2023-03-04T15:32:27.578Z,100583.84
2023-03-04T15:34:54.608Z,100577.38
2023-03-04T15:37:27.179Z,100580.06
2023-03-04T15:39:56.792Z,100585.44
2023-03-04T15:42:25.460Z,100582.13
2023-03-04T15:44:52.050Z,100576.66
2023-03-04T15:47:18.209Z,100592.78
2023-03-04T15:49:46.816Z,100580.81
2023-03-04T15:52:17.952Z,100581.28
2023-03-04T15:54:45.583Z,100579.94
2023-03-04T15:57:24.120Z,100590.31
2023-03-04T15:59:51.203Z,100594.09
2023-03-04T16:02:23.131Z,100597.53
2023-03-04T16:04:50.417Z,100594.34
2023-03-04T16:07:19.556Z,100592.66
2023-03-04T16:09:52.264Z,100596.56
2023-03-04T16:12:18.668Z,100596.19
2023-03-04T16:14:46.296Z,100597.75
2023-03-04T16:17:15.551Z,100605.69
2023-03-04T16:19:42.353Z,100605.44
2023-03-04T16:22:23.494Z,100605.56
2023-03-04T16:24:51.506Z,100600.19
2023-03-04T16:27:19.249Z,100610.78
2023-03-04T16:29:46.161Z,100609.09
2023-03-04T16:32:12.429Z,100614.94
2023-03-04T16:34:38.774Z,100614.44
2023-03-04T16:37:12.587Z,100611.75
2023-03-04T16:39:43.450Z,100612.69
2023-03-04T16:42:21.457Z,100614.84
2023-03-04T16:44:48.763Z,100612.28
2023-03-04T16:47:15.370Z,100624.94
2023-03-04T16:49:42.289Z,100619.91
2023-03-04T16:52:24.707Z,100630.25
2023-03-04T16:54:51.482Z,100641.94
2023-03-04T16:57:19.037Z,100639.53
2023-03-04T16:59:45.519Z,100649.59
2023-03-04T17:02:20.140Z,100647.47
2023-03-04T17:04:48.704Z,100653.53
2023-03-04T17:07:16.526Z,100647.41
2023-03-04T17:09:43.079Z,100658.88
2023-03-04T17:12:11.690Z,100663.44
2023-03-04T17:14:41.494Z,100659.06
2023-03-04T17:17:08.416Z,100664.53
2023-03-04T17:19:35.113Z,100661.31
2023-03-04T17:22:02.058Z,100662.56
2023-03-04T17:24:29.045Z,100672.53
2023-03-04T17:26:55.757Z,100670.19
2023-03-04T17:29:22.729Z,100670.75
2023-03-04T17:31:49.963Z,100683.22
2023-03-04T17:34:17.706Z,100680.44
2023-03-04T17:36:44.382Z,100677.97
2023-03-04T17:39:13.755Z,100687.19
2023-03-04T17:41:40.386Z,100695.13
2023-03-04T17:44:06.978Z,100693.84
2023-03-04T17:46:34.266Z,100692.78
2023-03-04T17:49:01.272Z,100699.09
2023-03-04T17:51:33.194Z,100704.75
2023-03-04T17:54:00.788Z,100705.69
2023-03-04T17:56:32.036Z,100708.66
2023-03-04T17:59:01.917Z,100711.88
2023-03-04T18:01:28.798Z,100709.63
2023-03-04T18:03:55.432Z,100709.94
2023-03-04T18:06:24.822Z,100716.56
2023-03-04T18:08:52.463Z,100713.91
2023-03-04T18:11:23.479Z,100718.53
2023-03-04T18:13:50.508Z,100728.03
2023-03-04T18:16:22.702Z,100723.44
2023-03-04T18:18:50.487Z,100731.88
2023-03-04T18:21:18.497Z,100729.69
2023-03-04T18:23:45.656Z,100725.31
2023-03-04T18:26:12.795Z,100724.97
2023-03-04T18:28:39.793Z,100720.16
2023-03-04T18:31:06.696Z,100727.69
2023-03-04T18:33:33.905Z,100729.59
2023-03-04T18:36:04.932Z,100729.41
2023-03-04T18:38:31.835Z,100733.97
2023-03-04T18:41:04.533Z,100733.03
2023-03-04T18:43:31.025Z,100732.72
2023-03-04T18:46:06.319Z,100738.06
2023-03-04T18:48:45.997Z,100745.78
2023-03-04T18:51:12.693Z,100748.78
2023-03-04T18:53:39.304Z,100743.72
2023-03-04T18:56:17.679Z,100745.44
2023-03-04T18:58:46.928Z,100742.97
2023-03-04T19:01:16.262Z,100748.31
2023-03-04T19:03:44.510Z,100753.25
2023-03-04T19:06:11.349Z,100752.31
2023-03-04T19:08:37.929Z,100757.00
2023-03-04T19:11:07.780Z,100758.25
2023-03-04T19:13:34.251Z,100764.16
2023-03-04T19:16:01.350Z,100760.31
2023-03-04T19:18:28.705Z,100761.69
2023-03-04T19:20:57.974Z,100765.13
2023-03-04T19:23:24.727Z,100768.25
2023-03-04T19:25:51.399Z,100766.03
2023-03-04T19:28:18.322Z,100770.31
2023-03-04T19:30:48.137Z,100759.16
2023-03-04T19:33:14.741Z,100764.81
2023-03-04T19:35:42.820Z,100761.84
2023-03-04T19:38:09.202Z,100768.56
2023-03-04T19:40:39.876Z,100781.47
2023-03-04T19:43:07.490Z,100774.59
2023-03-04T19:45:34.331Z,100783.50
2023-03-04T19:48:02.360Z,100777.97
2023-03-04T19:50:30.700Z,100780.63
2023-03-04T19:52:56.980Z,100776.63
2023-03-04T19:55:24.191Z,100779.41
2023-03-04T19:57:50.574Z,100778.81
2023-03-04T20:00:18.157Z,100781.41
2023-03-04T20:02:47.514Z,100784.44
2023-03-04T20:05:14.543Z,100791.50
2023-03-04T20:07:41.025Z,100784.94
2023-03-04T20:10:08.555Z,100781.22
2023-03-04T20:12:35.697Z,100786.66
2023-03-04T20:15:05.605Z,100778.91
2023-03-04T20:17:32.062Z,100784.81
2023-03-04T20:19:58.724Z,100787.25
2023-03-04T20:22:25.075Z,100783.66
2023-03-04T20:24:54.178Z,100787.47
2023-03-04T20:27:20.621Z,100795.91
2023-03-04T20:29:48.250Z,100785.59
2023-03-04T20:32:14.458Z,100784.41
2023-03-04T20:34:41.016Z,100780.69
2023-03-04T20:37:07.264Z,100783.47
2023-03-04T20:39:34.146Z,100792.63
2023-03-04T20:42:00.718Z,100790.72
2023-03-04T20:44:27.523Z,100783.41
2023-03-04T20:46:53.787Z,100789.03
2023-03-04T20:49:24.151Z,100787.66
2023-03-04T20:51:57.285Z,100782.22
2023-03-04T20:54:23.817Z,100784.75
2023-03-04T20:56:50.209Z,100784.28
2023-03-04T20:59:17.422Z,100781.97
2023-03-04T21:01:45.429Z,100772.06
2023-03-04T21:04:12.188Z,100775.47
2023-03-04T21:06:39.785Z,100773.97
2023-03-04T21:09:10.613Z,100771.84
2023-03-04T21:11:39.864Z,100775.00
2023-03-04T21:14:23.633Z,100772.06
2023-03-04T21:16:54.567Z,100765.28
2023-03-04T21:19:27.171Z,100768.34
2023-03-04T21:21:54.599Z,100771.69
2023-03-04T21:24:24.137Z,100773.00
2023-03-04T21:26:50.955Z,100767.25
2023-03-04T21:29:19.937Z,100767.41
2023-03-04T21:31:49.533Z,100763.19
2023-03-04T21:34:26.000Z,100766.94
2023-03-04T21:36:52.150Z,100766.97
2023-03-04T21:39:21.330Z,100763.72
2023-03-04T21:41:48.114Z,100768.31
2023-03-04T21:44:28.136Z,100759.81
2023-03-04T21:47:13.833Z,100755.09
2023-03-04T21:49:40.423Z,100753.28
2023-03-04T21:52:06.658Z,100750.66
2023-03-04T21:54:33.167Z,100758.81
2023-03-04T21:56:59.406Z,100748.88
2023-03-04T21:59:26.257Z,100744.94
2023-03-04T22:01:54.397Z,100751.06
2023-03-04T22:04:20.964Z,100750.03
2023-03-04T22:06:48.721Z,100746.25
2023-03-04T22:09:15.485Z,100754.31
2023-03-04T22:11:41.647Z,100751.66
2023-03-04T22:14:10.448Z,100750.13
2023-03-04T22:16:42.452Z,100751.25
2023-03-04T22:19:15.490Z,100745.75
2023-03-04T22:21:41.868Z,100746.06
2023-03-04T22:24:08.844Z,100736.06
2023-03-04T22:26:37.152Z,100737.38
2023-03-04T22:29:05.389Z,100737.13
2023-03-04T22:31:35.033Z,100738.00
2023-03-04T22:34:07.549Z,100734.13
2023-03-04T22:36:36.465Z,100729.56
2023-03-04T22:39:07.434Z,100730.59
2023-03-04T22:41:34.617Z,100735.03
2023-03-04T22:44:02.015Z,100731.78
2023-03-04T22:46:31.267Z,100725.44
2023-03-04T22:49:01.187Z,100729.28
2023-03-04T22:51:28.216Z,100726.28
2023-03-04T22:53:55.599Z,100732.56
2023-03-04T22:56:21.794Z,100727.25
2023-03-04T22:58:48.920Z,100725.16
2023-03-04T23:01:16.236Z,100720.59
2023-03-04T23:03:44.586Z,100714.69
2023-03-04T23:06:12.712Z,100712.97
2023-03-04T23:08:42.309Z,100717.94
2023-03-04T23:11:13.575Z,100721.38
2023-03-04T23:13:40.445Z,100709.81
2023-03-04T23:16:08.957Z,100715.00
2023-03-04T23:18:37.142Z,100716.78
2023-03-04T23:21:07.208Z,100714.88
2023-03-04T23:23:34.342Z,100708.47
2023-03-04T23:26:00.999Z,100706.84
2023-03-04T23:28:27.661Z,100702.59
2023-03-04T23:30:53.834Z,100706.03
2023-03-04T23:33:20.681Z,100705.81
2023-03-04T23:35:46.858Z,100697.50
2023-03-04T23:38:13.269Z,100698.25
2023-03-04T23:40:39.699Z,100701.88
2023-03-04T23:43:06.081Z,100693.59
2023-03-04T23:45:32.718Z,100693.91
2023-03-04T23:47:59.153Z,100695.94
2023-03-04T23:50:25.436Z,100694.88
2023-03-04T23:52:51.864Z,100690.22
2023-03-04T23:55:19.763Z,100690.22
2023-03-04T23:57:46.667Z,100690.78
